createdAt,value
2023-03-13T00:00:39.420Z,10.38
2023-03-13T00:01:40.348Z,10.38
2023-03-13T00:02:41.151Z,10.38
2023-03-13T00:03:42.030Z,10.38
2023-03-13T00:04:42.916Z,10.44
2023-03-13T00:05:43.739Z,10.44
2023-03-13T00:06:44.594Z,10.44
2023-03-13T00:07:45.451Z,10.44
2023-03-13T00:08:46.271Z,10.44
2023-03-13T00:09:47.119Z,10.44
2023-03-13T00:10:48.134Z,10.44
2023-03-13T00:11:48.481Z,10.44
2023-03-13T00:12:49.335Z,10.44
2023-03-13T00:13:50.189Z,10.44
2023-03-13T00:14:51.045Z,10.44
2023-03-13T00:15:51.910Z,10.44
2023-03-13T00:16:52.818Z,10.44
2023-03-13T00:17:53.673Z,10.44
2023-03-13T00:18:54.687Z,10.44
2023-03-13T00:19:55.032Z,10.44
2023-03-13T00:20:56.108Z,10.44
2023-03-13T00:21:56.474Z,10.44
2023-03-13T00:22:57.330Z,10.44
2023-03-13T00:23:58.156Z,10.44
2023-03-13T00:24:59.005Z,10.44
2023-03-13T00:25:59.872Z,10.44
2023-03-13T00:27:00.723Z,10.50
2023-03-13T00:28:01.581Z,10.44
2023-03-13T00:29:02.428Z,10.44
2023-03-13T00:30:03.294Z,10.50
2023-03-13T00:31:04.718Z,10.50
2023-03-13T00:32:05.066Z,10.50
2023-03-13T00:33:05.900Z,10.50
2023-03-13T00:34:06.777Z,10.50
2023-03-13T00:35:07.644Z,10.50
2023-03-13T00:36:08.617Z,10.50
2023-03-13T00:37:09.467Z,10.50
2023-03-13T00:38:10.334Z,10.50
2023-03-13T00:39:11.187Z,10.50
2023-03-13T00:40:12.041Z,10.50
2023-03-13T00:41:12.924Z,10.44
2023-03-13T00:42:13.766Z,10.50
2023-03-13T00:43:14.614Z,10.50
2023-03-13T00:44:15.468Z,10.44
2023-03-13T00:45:16.324Z,10.50
2023-03-13T00:46:17.278Z,10.50
2023-03-13T00:47:18.063Z,10.44
2023-03-13T00:48:18.922Z,10.44
2023-03-13T00:49:19.794Z,10.44
2023-03-13T00:50:20.625Z,10.44
2023-03-13T00:51:21.493Z,10.44
2023-03-13T00:52:22.343Z,10.44
2023-03-13T00:53:23.210Z,10.44
2023-03-13T00:54:24.047Z,10.44
2023-03-13T00:55:24.899Z,10.38
2023-03-13T00:56:25.773Z,10.38
2023-03-13T00:57:26.628Z,10.38
2023-03-13T00:58:27.478Z,10.44
2023-03-13T00:59:28.343Z,10.38
2023-03-13T01:00:29.187Z,10.38
2023-03-13T01:01:30.108Z,10.38
2023-03-13T01:02:31.164Z,10.38
2023-03-13T01:03:31.583Z,10.38
2023-03-13T01:04:32.408Z,10.38
2023-03-13T01:05:33.237Z,10.38
2023-03-13T01:06:34.608Z,10.38
2023-03-13T01:07:34.970Z,10.31
2023-03-13T01:08:35.908Z,10.38
2023-03-13T01:09:36.720Z,10.38
2023-03-13T01:10:37.589Z,10.38
2023-03-13T01:11:38.626Z,10.38
2023-03-13T01:12:38.978Z,10.38
2023-03-13T01:13:39.859Z,10.38
2023-03-13T01:14:40.696Z,10.38
2023-03-13T01:15:41.589Z,10.38
2023-03-13T01:16:42.433Z,10.38
2023-03-13T01:17:43.290Z,10.31
2023-03-13T01:18:44.153Z,10.38
2023-03-13T01:19:45.021Z,10.31
2023-03-13T01:20:45.866Z,10.31
2023-03-13T01:21:46.735Z,10.25
2023-03-13T01:22:47.590Z,10.25
2023-03-13T01:23:48.500Z,10.25
2023-03-13T01:24:49.269Z,10.25
2023-03-13T01:25:50.140Z,10.25
2023-03-13T01:26:51.116Z,10.25
2023-03-13T01:27:51.981Z,10.25
2023-03-13T01:28:52.862Z,10.25
2023-03-13T01:29:53.708Z,10.25
2023-03-13T01:30:54.618Z,10.25
2023-03-13T01:31:55.438Z,10.25
2023-03-13T01:32:56.358Z,10.25
2023-03-13T01:33:57.142Z,10.31
2023-03-13T01:34:58.017Z,10.31
2023-03-13T01:35:58.869Z,10.31
2023-03-13T01:37:00.114Z,10.31
2023-03-13T01:38:00.462Z,10.31
2023-03-13T01:39:01.360Z,10.31
2023-03-13T01:40:02.163Z,10.25
2023-03-13T01:41:03.008Z,10.31
2023-03-13T01:42:03.873Z,10.31
2023-03-13T01:43:06.335Z,10.31
2023-03-13T01:44:05.557Z,10.31
2023-03-13T01:45:06.408Z,10.31
2023-03-13T01:46:07.337Z,10.31
2023-03-13T01:47:08.628Z,10.31
2023-03-13T01:48:08.965Z,10.31
2023-03-13T01:49:09.823Z,10.31
2023-03-13T01:50:10.696Z,10.31
2023-03-13T01:51:11.544Z,10.31
2023-03-13T01:52:12.611Z,10.31
2023-03-13T01:53:12.968Z,10.25
2023-03-13T01:54:13.886Z,10.25
2023-03-13T01:55:14.694Z,10.19
2023-03-13T01:56:15.544Z,10.19
2023-03-13T01:57:16.614Z,10.19
2023-03-13T01:58:16.974Z,10.19
2023-03-13T01:59:17.842Z,10.19
2023-03-13T02:00:18.708Z,10.19
2023-03-13T02:01:19.596Z,10.12
2023-03-13T02:02:20.551Z,10.19
2023-03-13T02:03:21.353Z,10.19
2023-03-13T02:04:22.204Z,10.12
2023-03-13T02:05:23.121Z,10.19
2023-03-13T02:06:23.923Z,10.19
2023-03-13T02:07:25.117Z,10.19
2023-03-13T02:08:25.466Z,10.19
2023-03-13T02:09:26.401Z,10.19
2023-03-13T02:10:27.191Z,10.19
2023-03-13T02:11:28.043Z,10.12
2023-03-13T02:12:29.130Z,10.12
2023-03-13T02:13:29.504Z,10.12
2023-03-13T02:14:30.360Z,10.12
2023-03-13T02:15:31.215Z,10.06
2023-03-13T02:16:32.100Z,10.06
2023-03-13T02:17:32.939Z,10.06
2023-03-13T02:18:33.810Z,10.06
2023-03-13T02:19:34.659Z,10.06
2023-03-13T02:20:35.543Z,10.06
2023-03-13T02:21:36.387Z,10.06
2023-03-13T02:22:37.253Z,10.06
2023-03-13T02:23:38.124Z,10.06
2023-03-13T02:24:39.018Z,10.06
2023-03-13T02:25:39.834Z,10.06
2023-03-13T02:26:40.682Z,10.06
2023-03-13T02:27:41.548Z,10.00
2023-03-13T02:28:42.411Z,10.00
2023-03-13T02:29:43.264Z,10.00
2023-03-13T02:30:44.128Z,10.00
2023-03-13T02:31:45.017Z,10.00
2023-03-13T02:32:46.165Z,10.00
2023-03-13T02:33:46.462Z,10.00
2023-03-13T02:34:47.328Z,10.00
2023-03-13T02:35:48.252Z,10.00
2023-03-13T02:36:49.143Z,10.00
2023-03-13T02:37:50.103Z,10.00
2023-03-13T02:38:50.969Z,10.00
2023-03-13T02:39:51.856Z,10.00
2023-03-13T02:40:52.768Z,10.00
2023-03-13T02:41:53.624Z,10.00
2023-03-13T02:42:54.612Z,9.94
2023-03-13T02:43:55.470Z,9.94
2023-03-13T02:44:56.315Z,9.94
2023-03-13T02:45:57.171Z,10.00
2023-03-13T02:46:58.053Z,9.94
2023-03-13T02:47:59.123Z,10.00
2023-03-13T02:48:59.457Z,9.94
2023-03-13T02:50:00.340Z,10.00
2023-03-13T02:51:01.215Z,9.94
2023-03-13T02:52:02.050Z,10.00
2023-03-13T02:53:03.106Z,10.00
2023-03-13T02:54:03.484Z,10.00
2023-03-13T02:55:04.337Z,10.00
2023-03-13T02:56:05.163Z,10.00
2023-03-13T02:57:06.011Z,10.00
2023-03-13T02:58:07.111Z,10.00
2023-03-13T02:59:07.464Z,10.00
2023-03-13T03:00:08.320Z,10.00
2023-03-13T03:01:09.226Z,10.00
2023-03-13T03:02:10.045Z,10.00
2023-03-13T03:03:10.921Z,10.00
2023-03-13T03:04:11.845Z,10.00
2023-03-13T03:05:12.660Z,10.00
2023-03-13T03:06:13.565Z,10.00
2023-03-13T03:07:14.387Z,10.00
2023-03-13T03:08:15.258Z,10.00
2023-03-13T03:09:16.115Z,10.00
2023-03-13T03:10:17.020Z,10.00
2023-03-13T03:11:17.842Z,10.00
2023-03-13T03:12:18.692Z,10.00
2023-03-13T03:13:19.574Z,10.00
2023-03-13T03:14:20.443Z,10.00
2023-03-13T03:15:21.309Z,10.00
2023-03-13T03:16:22.289Z,10.00
2023-03-13T03:17:23.095Z,9.94
2023-03-13T03:18:24.113Z,10.00
2023-03-13T03:19:24.462Z,9.94
2023-03-13T03:20:25.316Z,10.00
2023-03-13T03:21:26.193Z,10.00
2023-03-13T03:22:27.017Z,10.00
2023-03-13T03:23:27.881Z,10.00
2023-03-13T03:24:28.732Z,10.00
2023-03-13T03:25:29.616Z,10.00
2023-03-13T03:26:30.405Z,10.00
2023-03-13T03:27:31.252Z,10.00
2023-03-13T03:28:32.610Z,10.00
2023-03-13T03:29:32.952Z,10.00
2023-03-13T03:30:33.808Z,10.00
2023-03-13T03:31:34.718Z,10.06
2023-03-13T03:32:35.634Z,10.06
2023-03-13T03:33:36.473Z,10.06
2023-03-13T03:34:37.320Z,10.06
2023-03-13T03:35:38.271Z,10.00
2023-03-13T03:36:39.087Z,10.00
2023-03-13T03:37:39.930Z,10.00
2023-03-13T03:38:40.796Z,10.00
2023-03-13T03:39:41.649Z,10.00
2023-03-13T03:40:42.643Z,10.00
2023-03-13T03:41:43.420Z,10.00
2023-03-13T03:42:44.312Z,9.94
2023-03-13T03:43:45.599Z,9.94
2023-03-13T03:44:45.972Z,10.00
2023-03-13T03:45:46.877Z,10.00
2023-03-13T03:46:47.788Z,10.00
2023-03-13T03:47:48.582Z,9.94
2023-03-13T03:48:49.602Z,9.94
2023-03-13T03:49:49.952Z,9.94
2023-03-13T03:50:50.807Z,9.94
2023-03-13T03:51:51.698Z,10.00
2023-03-13T03:52:52.528Z,10.00
2023-03-13T03:53:53.596Z,10.00
2023-03-13T03:54:53.956Z,10.00
2023-03-13T03:55:54.944Z,10.00
2023-03-13T03:56:55.737Z,10.06
2023-03-13T03:57:56.625Z,10.06
2023-03-13T03:58:57.468Z,10.06
2023-03-13T03:59:58.316Z,10.12
2023-03-13T04:00:59.191Z,10.06
2023-03-13T04:02:00.102Z,10.12
2023-03-13T04:03:00.979Z,10.12
2023-03-13T04:04:02.106Z,10.12
2023-03-13T04:05:02.461Z,10.19
2023-03-13T04:06:03.319Z,10.19
2023-03-13T04:07:04.179Z,10.19
2023-03-13T04:08:05.027Z,10.19
2023-03-13T04:09:06.104Z,10.25
2023-03-13T04:10:06.457Z,10.31
2023-03-13T04:11:07.331Z,10.31
2023-03-13T04:12:08.118Z,10.31
2023-03-13T04:13:08.971Z,10.31
2023-03-13T04:14:09.871Z,10.31
2023-03-13T04:15:10.719Z,10.31
2023-03-13T04:16:11.629Z,10.38
2023-03-13T04:17:12.428Z,10.31
2023-03-13T04:18:13.277Z,10.31
2023-03-13T04:19:14.609Z,10.31
2023-03-13T04:20:14.953Z,10.31
2023-03-13T04:21:15.808Z,10.31
2023-03-13T04:22:18.706Z,10.31
2023-03-13T04:23:17.526Z,10.31
2023-03-13T04:24:18.378Z,10.31
2023-03-13T04:25:19.221Z,10.31
2023-03-13T04:26:20.098Z,10.31
2023-03-13T04:27:20.885Z,10.31
2023-03-13T04:28:21.737Z,10.31
2023-03-13T04:29:22.607Z,10.31
2023-03-13T04:30:23.459Z,10.31
2023-03-13T04:31:24.320Z,10.31
2023-03-13T04:32:25.288Z,10.31
2023-03-13T04:33:25.721Z,10.31
2023-03-13T04:34:26.574Z,10.25
2023-03-13T04:35:27.497Z,10.31
2023-03-13T04:36:28.335Z,10.31
2023-03-13T04:37:29.172Z,10.31
2023-03-13T04:38:30.014Z,10.31
2023-03-13T04:39:32.990Z,10.31
2023-03-13T04:40:31.435Z,10.31
2023-03-13T04:41:32.320Z,10.31
2023-03-13T04:42:33.107Z,10.25
2023-03-13T04:43:33.962Z,10.25
2023-03-13T04:44:34.828Z,10.25
2023-03-13T04:45:35.687Z,10.31
2023-03-13T04:46:36.564Z,10.31
2023-03-13T04:47:37.419Z,10.31
2023-03-13T04:48:38.273Z,10.31
2023-03-13T04:49:39.140Z,10.38
2023-03-13T04:50:39.994Z,10.38
2023-03-13T04:51:40.849Z,10.38
2023-03-13T04:52:41.736Z,10.31
2023-03-13T04:53:42.552Z,10.31
2023-03-13T04:54:43.429Z,10.38
2023-03-13T04:55:44.279Z,10.31
2023-03-13T04:56:45.175Z,10.38
2023-03-13T04:57:46.020Z,10.38
2023-03-13T04:58:47.109Z,10.38
2023-03-13T04:59:47.438Z,10.38
2023-03-13T05:00:48.296Z,10.38
2023-03-13T05:01:49.230Z,10.38
2023-03-13T05:02:50.071Z,10.38
2023-03-13T05:03:50.930Z,10.38
2023-03-13T05:04:52.411Z,10.31
2023-03-13T05:05:52.310Z,10.31
2023-03-13T05:06:53.172Z,10.38
2023-03-13T05:07:54.037Z,10.38
2023-03-13T05:08:54.877Z,10.38
2023-03-13T05:09:55.735Z,10.38
2023-03-13T05:10:56.586Z,10.31
2023-03-13T05:11:58.338Z,10.31
2023-03-13T05:12:58.168Z,10.31
2023-03-13T05:13:59.014Z,10.31
2023-03-13T05:15:00.131Z,10.31
2023-03-13T05:16:00.502Z,10.38
2023-03-13T05:17:01.346Z,10.38
2023-03-13T05:18:02.226Z,10.38
2023-03-13T05:19:03.076Z,10.44
2023-03-13T05:20:04.103Z,10.44
2023-03-13T05:21:04.476Z,10.38
2023-03-13T05:22:05.306Z,10.44
2023-03-13T05:23:06.215Z,10.44
2023-03-13T05:24:07.016Z,10.44
2023-03-13T05:25:08.106Z,10.50
2023-03-13T05:26:08.459Z,10.50
2023-03-13T05:27:09.425Z,10.50
2023-03-13T05:28:10.217Z,10.50
2023-03-13T05:29:11.068Z,10.50
2023-03-13T05:30:11.927Z,10.56
2023-03-13T05:31:12.867Z,10.62
2023-03-13T05:32:13.668Z,10.69
2023-03-13T05:33:14.525Z,10.69
2023-03-13T05:34:15.396Z,10.62
2023-03-13T05:35:16.597Z,10.69
2023-03-13T05:36:17.012Z,10.81
2023-03-13T05:37:17.914Z,10.88
2023-03-13T05:38:18.790Z,10.88
2023-03-13T05:39:19.620Z,10.88
2023-03-13T05:40:20.499Z,10.94
2023-03-13T05:41:21.346Z,10.94
2023-03-13T05:42:22.231Z,11.00
2023-03-13T05:43:23.053Z,11.00
2023-03-13T05:44:23.899Z,11.00
2023-03-13T05:45:24.769Z,11.00
2023-03-13T05:46:25.734Z,11.00
2023-03-13T05:47:26.528Z,11.00
2023-03-13T05:48:27.382Z,11.00
2023-03-13T05:49:28.272Z,11.00
2023-03-13T05:50:29.194Z,11.06
2023-03-13T05:51:30.048Z,11.06
2023-03-13T05:52:30.903Z,11.06
2023-03-13T05:53:31.781Z,11.12
2023-03-13T05:54:32.624Z,11.12
2023-03-13T05:55:33.479Z,11.12
2023-03-13T05:56:34.335Z,11.12
2023-03-13T05:57:35.245Z,11.19
2023-03-13T05:58:36.082Z,11.19
2023-03-13T05:59:36.940Z,11.19
2023-03-13T06:00:37.809Z,11.19
2023-03-13T06:01:38.664Z,11.25
2023-03-13T06:02:39.511Z,11.25
2023-03-13T06:03:40.648Z,11.19
2023-03-13T06:04:41.182Z,11.25
2023-03-13T06:05:41.651Z,11.25
2023-03-13T06:06:42.441Z,11.25
2023-03-13T06:07:43.294Z,11.25
2023-03-13T06:08:44.189Z,11.31
2023-03-13T06:09:45.007Z,11.31
2023-03-13T06:10:45.885Z,11.31
2023-03-13T06:11:46.739Z,11.31
2023-03-13T06:12:47.613Z,11.31
2023-03-13T06:13:48.446Z,11.38
2023-03-13T06:14:49.301Z,11.31
2023-03-13T06:15:50.210Z,11.38
2023-03-13T06:16:51.033Z,11.38
2023-03-13T06:17:51.888Z,11.38
2023-03-13T06:18:52.753Z,11.38
2023-03-13T06:19:53.595Z,11.38
2023-03-13T06:20:54.461Z,11.44
2023-03-13T06:21:55.319Z,11.44
2023-03-13T06:22:56.166Z,11.44
2023-03-13T06:23:57.041Z,11.44
2023-03-13T06:24:57.884Z,11.44
2023-03-13T06:25:59.082Z,11.50
2023-03-13T06:26:59.457Z,11.44
2023-03-13T06:28:00.377Z,11.50
2023-03-13T06:29:01.170Z,11.56
2023-03-13T06:30:02.061Z,11.56
2023-03-13T06:31:03.147Z,11.56
2023-03-13T06:32:03.579Z,11.56
2023-03-13T06:33:04.100Z,11.56
2023-03-13T06:34:04.923Z,11.62
2023-03-13T06:35:05.788Z,11.62
2023-03-13T06:36:07.111Z,11.69
2023-03-13T06:37:07.437Z,11.69
2023-03-13T06:38:08.294Z,11.69
2023-03-13T06:39:09.182Z,11.69
2023-03-13T06:40:10.023Z,11.69
2023-03-13T06:41:10.901Z,11.69
2023-03-13T06:42:11.739Z,11.69
2023-03-13T06:43:12.609Z,11.75
2023-03-13T06:44:13.443Z,11.75
2023-03-13T06:45:14.307Z,11.75
2023-03-13T06:46:15.591Z,11.75
2023-03-13T06:47:15.976Z,11.81
2023-03-13T06:48:16.805Z,11.81
2023-03-13T06:49:17.651Z,11.81
2023-03-13T06:50:18.506Z,11.88
2023-03-13T06:51:19.590Z,11.88
2023-03-13T06:52:20.636Z,11.88
2023-03-13T06:53:20.552Z,11.88
2023-03-13T06:54:21.414Z,11.94
2023-03-13T06:55:22.220Z,11.94
2023-03-13T06:56:23.602Z,11.94
2023-03-13T06:57:23.941Z,12.00
2023-03-13T06:58:31.972Z,12.00
2023-03-13T06:59:26.566Z,12.00
2023-03-13T07:00:26.401Z,12.06
2023-03-13T07:01:27.423Z,12.06
2023-03-13T07:02:28.221Z,12.06
2023-03-13T07:03:29.159Z,12.06
2023-03-13T07:04:29.991Z,12.12
2023-03-13T07:05:30.842Z,12.19
2023-03-13T07:06:32.107Z,12.19
2023-03-13T07:07:32.456Z,12.19
2023-03-13T07:08:33.327Z,12.25
2023-03-13T07:09:34.216Z,12.19
2023-03-13T07:10:35.033Z,12.25
2023-03-13T07:11:36.094Z,12.25
2023-03-13T07:12:36.442Z,12.25
2023-03-13T07:13:37.326Z,12.25
2023-03-13T07:14:38.119Z,12.25
2023-03-13T07:15:38.985Z,12.31
2023-03-13T07:16:40.180Z,12.31
2023-03-13T07:17:40.577Z,12.31
2023-03-13T07:18:41.383Z,12.31
2023-03-13T07:19:42.239Z,12.31
2023-03-13T07:20:43.149Z,12.31
2023-03-13T07:21:44.031Z,12.31
2023-03-13T07:22:44.858Z,12.38
2023-03-13T07:23:45.715Z,12.38
2023-03-13T07:24:46.700Z,12.38
2023-03-13T07:25:47.505Z,12.44
2023-03-13T07:27:03.479Z,12.44
2023-03-13T07:27:50.349Z,12.44
2023-03-13T07:28:50.220Z,12.50
2023-03-13T07:29:51.052Z,12.50
2023-03-13T07:30:51.923Z,12.50
2023-03-13T07:31:53.197Z,12.50
2023-03-13T07:32:53.571Z,12.56
2023-03-13T07:33:54.420Z,12.56
2023-03-13T07:34:55.528Z,12.56
2023-03-13T07:35:55.928Z,12.56
2023-03-13T07:36:56.749Z,12.62
2023-03-13T07:37:57.601Z,12.56
2023-03-13T07:38:58.465Z,12.56
2023-03-13T07:39:59.341Z,12.56
2023-03-13T07:41:00.211Z,12.56
2023-03-13T07:42:01.089Z,12.56
2023-03-13T07:43:01.947Z,12.62
2023-03-13T07:44:02.813Z,12.62
2023-03-13T07:45:03.660Z,12.62
2023-03-13T07:46:04.632Z,12.62
2023-03-13T07:47:05.527Z,12.69
2023-03-13T07:48:06.625Z,12.69
2023-03-13T07:49:07.015Z,12.75
2023-03-13T07:50:08.408Z,12.75
2023-03-13T07:51:08.844Z,12.75
2023-03-13T07:52:10.449Z,12.75
2023-03-13T07:53:12.299Z,12.81
2023-03-13T07:54:11.785Z,12.81
2023-03-13T07:55:11.773Z,12.81
2023-03-13T07:56:12.653Z,12.81
2023-03-13T07:57:13.667Z,12.88
2023-03-13T07:58:14.451Z,12.81
2023-03-13T07:59:15.347Z,12.88
2023-03-13T08:00:16.144Z,12.81
2023-03-13T08:01:16.998Z,12.81
2023-03-13T08:02:18.187Z,12.88
2023-03-13T08:03:18.503Z,12.81
2023-03-13T08:04:19.351Z,12.88
2023-03-13T08:05:20.203Z,12.88
2023-03-13T08:06:34.267Z,12.88
2023-03-13T08:07:22.953Z,12.88
2023-03-13T08:08:22.754Z,12.94
2023-03-13T08:09:24.580Z,12.94
2023-03-13T08:10:24.492Z,12.94
2023-03-13T08:11:25.551Z,12.94
2023-03-13T08:12:26.094Z,13.00
2023-03-13T08:13:26.455Z,13.00
2023-03-13T08:14:27.302Z,13.06
2023-03-13T08:15:58.068Z,13.00
2023-03-13T08:16:28.986Z,13.00
2023-03-13T08:17:30.099Z,13.00
2023-03-13T08:18:30.459Z,12.94
2023-03-13T08:19:31.308Z,13.00
2023-03-13T08:20:32.181Z,13.00
2023-03-13T08:21:33.064Z,13.00
2023-03-13T08:22:34.085Z,13.06
2023-03-13T08:23:56.682Z,13.00
2023-03-13T08:24:34.967Z,13.06
2023-03-13T08:25:35.844Z,13.06
2023-03-13T08:26:36.690Z,13.06
2023-03-13T08:27:37.588Z,13.06
2023-03-13T08:28:38.458Z,13.12
2023-03-13T08:29:39.316Z,13.06
2023-03-13T08:30:41.102Z,13.12
2023-03-13T08:31:40.945Z,13.12
2023-03-13T08:32:42.131Z,13.12
2023-03-13T08:33:42.436Z,13.12
2023-03-13T08:34:43.290Z,13.12
2023-03-13T08:35:44.220Z,13.19
2023-03-13T08:36:45.009Z,13.19
2023-03-13T08:37:45.874Z,13.25
2023-03-13T08:38:46.891Z,13.25
2023-03-13T08:39:47.732Z,13.25
2023-03-13T08:40:48.546Z,13.25
2023-03-13T08:41:49.375Z,13.19
2023-03-13T08:42:50.578Z,13.31
2023-03-13T08:43:50.936Z,13.31
2023-03-13T08:44:51.806Z,13.31
2023-03-13T08:45:52.754Z,13.31
2023-03-13T08:46:53.582Z,13.31
2023-03-13T08:47:54.586Z,13.38
2023-03-13T08:48:55.233Z,13.38
2023-03-13T08:49:55.635Z,13.38
2023-03-13T08:50:56.501Z,13.44
2023-03-13T08:51:57.356Z,13.38
2023-03-13T08:52:58.583Z,13.44
2023-03-13T08:53:58.939Z,13.44
2023-03-13T08:54:59.820Z,13.50
2023-03-13T08:56:00.674Z,13.50
2023-03-13T08:57:01.499Z,13.50
2023-03-13T08:58:02.367Z,13.50
2023-03-13T08:59:03.221Z,13.50
2023-03-13T09:00:04.073Z,13.50
2023-03-13T09:01:04.938Z,13.50
2023-03-13T09:02:05.862Z,13.50
2023-03-13T09:03:07.086Z,13.50
2023-03-13T09:04:07.522Z,13.50
2023-03-13T09:05:08.414Z,13.50
2023-03-13T09:06:09.272Z,13.50
2023-03-13T09:07:10.139Z,13.50
2023-03-13T09:08:11.008Z,13.50
2023-03-13T09:09:11.882Z,13.50
2023-03-13T09:10:12.761Z,13.50
2023-03-13T09:11:13.562Z,13.56
2023-03-13T09:12:29.691Z,13.50
2023-03-13T09:13:16.587Z,13.50
2023-03-13T09:14:15.945Z,13.50
2023-03-13T09:15:16.817Z,13.50
2023-03-13T09:16:17.745Z,13.50
2023-03-13T09:17:18.581Z,13.50
2023-03-13T09:18:19.642Z,13.50
2023-03-13T09:19:19.989Z,13.50
2023-03-13T09:20:20.848Z,13.50
2023-03-13T09:21:21.701Z,13.56
2023-03-13T09:22:22.557Z,13.56
2023-03-13T09:23:23.601Z,13.62
2023-03-13T09:24:23.940Z,13.62
2023-03-13T09:25:24.820Z,13.69
2023-03-13T09:26:25.620Z,13.69
2023-03-13T09:27:26.462Z,13.75
2023-03-13T09:28:27.599Z,13.75
2023-03-13T09:29:27.957Z,13.88
2023-03-13T09:30:28.799Z,13.94
2023-03-13T09:31:29.835Z,14.06
2023-03-13T09:32:30.395Z,14.12
2023-03-13T09:33:31.588Z,14.19
2023-03-13T09:34:31.939Z,14.31
2023-03-13T09:35:32.791Z,14.44
2023-03-13T09:36:33.654Z,14.56
2023-03-13T09:37:34.503Z,14.62
2023-03-13T09:38:35.411Z,14.69
2023-03-13T09:39:36.237Z,14.62
2023-03-13T09:40:37.121Z,14.62
2023-03-13T09:41:37.932Z,14.62
2023-03-13T09:42:38.762Z,14.62
2023-03-13T09:43:40.089Z,14.62
2023-03-13T09:44:40.445Z,14.62
2023-03-13T09:45:41.304Z,14.56
2023-03-13T09:46:42.290Z,14.50
2023-03-13T09:47:43.114Z,14.44
2023-03-13T09:48:43.999Z,14.44
2023-03-13T09:49:44.840Z,14.38
2023-03-13T09:50:45.697Z,14.38
2023-03-13T09:51:46.556Z,14.31
2023-03-13T09:52:47.405Z,14.25
2023-03-13T09:53:48.586Z,14.25
2023-03-13T09:54:48.955Z,14.19
2023-03-13T09:55:49.876Z,14.19
2023-03-13T09:56:50.683Z,14.19
2023-03-13T09:57:51.527Z,14.19
2023-03-13T09:58:52.404Z,14.19
2023-03-13T09:59:53.259Z,14.19
2023-03-13T10:00:54.117Z,14.19
2023-03-13T10:01:55.117Z,14.19
2023-03-13T10:02:55.665Z,14.19
2023-03-13T10:03:56.121Z,14.19
2023-03-13T10:04:56.957Z,14.25
2023-03-13T10:05:57.805Z,14.31
2023-03-13T10:06:58.661Z,14.38
2023-03-13T10:07:59.529Z,14.50
2023-03-13T10:09:00.587Z,14.56
2023-03-13T10:10:00.943Z,14.62
2023-03-13T10:11:01.891Z,14.62
2023-03-13T10:12:02.697Z,14.62
2023-03-13T10:13:03.535Z,14.62
2023-03-13T10:14:04.580Z,14.56
2023-03-13T10:15:04.958Z,14.56
2023-03-13T10:16:05.870Z,14.56
2023-03-13T10:17:06.723Z,14.56
2023-03-13T10:18:07.573Z,14.56
2023-03-13T10:19:08.596Z,14.50
2023-03-13T10:20:08.952Z,14.56
2023-03-13T10:21:09.869Z,14.56
2023-03-13T10:22:10.725Z,14.50
2023-03-13T10:23:11.580Z,14.56
2023-03-13T10:24:12.583Z,14.56
2023-03-13T10:25:12.933Z,14.56
2023-03-13T10:26:13.825Z,14.62
2023-03-13T10:27:14.627Z,14.62
2023-03-13T10:28:15.490Z,14.69
2023-03-13T10:29:16.586Z,14.69
2023-03-13T10:30:16.953Z,14.75
2023-03-13T10:31:17.896Z,14.81
2023-03-13T10:32:18.740Z,14.88
2023-03-13T10:33:19.585Z,14.94
2023-03-13T10:34:20.581Z,15.00
2023-03-13T10:35:20.952Z,15.12
2023-03-13T10:36:21.808Z,15.19
2023-03-13T10:37:22.676Z,15.31
2023-03-13T10:38:25.676Z,15.38
2023-03-13T10:39:24.077Z,15.38
2023-03-13T10:40:24.937Z,15.44
2023-03-13T10:41:25.893Z,15.44
2023-03-13T10:42:26.693Z,15.44
2023-03-13T10:43:27.549Z,15.44
2023-03-13T10:44:28.591Z,15.44
2023-03-13T10:45:28.939Z,15.50
2023-03-13T10:46:29.860Z,15.56
2023-03-13T10:47:30.666Z,15.56
2023-03-13T10:48:31.508Z,15.56
2023-03-13T10:49:32.411Z,15.56
2023-03-13T10:50:33.248Z,15.56
2023-03-13T10:51:34.136Z,15.50
2023-03-13T10:52:34.991Z,15.50
2023-03-13T10:53:35.842Z,15.50
2023-03-13T10:54:37.082Z,15.50
2023-03-13T10:55:37.445Z,15.50
2023-03-13T10:56:38.312Z,15.56
2023-03-13T10:57:39.131Z,15.56
2023-03-13T10:58:39.968Z,15.62
2023-03-13T10:59:40.837Z,15.56
2023-03-13T11:00:41.685Z,15.56
2023-03-13T11:01:42.572Z,15.62
2023-03-13T11:02:43.470Z,15.62
2023-03-13T11:03:44.336Z,15.62
2023-03-13T11:04:45.173Z,15.62
2023-03-13T11:05:46.035Z,15.69
2023-03-13T11:06:46.886Z,15.69
2023-03-13T11:07:47.757Z,15.62
2023-03-13T11:08:48.629Z,15.75
2023-03-13T11:09:49.586Z,15.88
2023-03-13T11:10:50.440Z,15.88
2023-03-13T11:11:51.323Z,15.94
2023-03-13T11:12:52.169Z,16.19
2023-03-13T11:13:53.003Z,16.31
2023-03-13T11:14:54.136Z,16.31
2023-03-13T11:15:54.459Z,16.25
2023-03-13T11:16:55.303Z,16.25
2023-03-13T11:17:56.242Z,16.19
2023-03-13T11:18:57.100Z,16.12
2023-03-13T11:19:58.136Z,16.12
2023-03-13T11:21:08.741Z,16.12
2023-03-13T11:22:00.316Z,16.12
2023-03-13T11:23:00.115Z,16.12
2023-03-13T11:24:00.975Z,16.19
2023-03-13T11:25:02.085Z,16.81
2023-03-13T11:26:02.487Z,16.94
2023-03-13T11:27:04.938Z,16.81
2023-03-13T11:28:04.211Z,16.69
2023-03-13T11:29:05.042Z,16.69
2023-03-13T11:30:05.921Z,16.56
2023-03-13T11:31:06.814Z,16.62
2023-03-13T11:32:08.169Z,16.56
2023-03-13T11:33:08.503Z,16.50
2023-03-13T11:34:09.364Z,16.38
2023-03-13T11:35:10.243Z,16.44
2023-03-13T11:36:11.185Z,16.56
2023-03-13T11:37:11.982Z,16.56
2023-03-13T11:38:12.827Z,16.56
2023-03-13T11:39:13.681Z,16.88
2023-03-13T11:40:14.550Z,16.88
2023-03-13T11:41:15.439Z,16.69
2023-03-13T11:42:16.272Z,16.56
2023-03-13T11:43:25.040Z,16.50
2023-03-13T11:44:18.838Z,16.50
2023-03-13T11:45:18.709Z,16.94
2023-03-13T11:46:20.009Z,17.69
2023-03-13T11:47:20.391Z,18.12
2023-03-13T11:48:21.248Z,18.12
2023-03-13T11:49:22.102Z,17.88
2023-03-13T11:50:23.084Z,17.62
2023-03-13T11:51:24.081Z,17.44
2023-03-13T11:52:24.886Z,17.25
2023-03-13T11:53:25.758Z,17.19
2023-03-13T11:54:26.624Z,17.06
2023-03-13T11:55:27.506Z,17.06
2023-03-13T11:56:28.401Z,17.12
2023-03-13T11:57:29.275Z,17.56
2023-03-13T11:58:30.153Z,17.88
2023-03-13T11:59:30.969Z,17.69
2023-03-13T12:00:31.838Z,17.50
2023-03-13T12:01:32.692Z,17.38
2023-03-13T12:02:33.650Z,17.25
2023-03-13T12:03:34.115Z,17.19
2023-03-13T12:04:34.927Z,17.06
2023-03-13T12:05:35.832Z,17.00
2023-03-13T12:06:36.654Z,17.12
2023-03-13T12:07:37.507Z,17.56
2023-03-13T12:08:38.359Z,17.62
2023-03-13T12:09:39.207Z,17.88
2023-03-13T12:10:40.097Z,18.12
2023-03-13T12:11:40.947Z,18.25
2023-03-13T12:12:41.818Z,18.38
2023-03-13T12:13:42.633Z,18.50
2023-03-13T12:14:43.484Z,19.06
2023-03-13T12:15:44.344Z,19.56
2023-03-13T12:16:45.275Z,19.75
2023-03-13T12:17:46.163Z,19.75
2023-03-13T12:18:46.977Z,19.62
2023-03-13T12:19:47.828Z,19.44
2023-03-13T12:20:48.711Z,19.69
2023-03-13T12:21:49.647Z,19.94
2023-03-13T12:22:50.445Z,20.12
2023-03-13T12:23:51.349Z,20.38
2023-03-13T12:24:52.188Z,20.44
2023-03-13T12:25:53.185Z,20.25
2023-03-13T12:26:54.003Z,19.88
2023-03-13T12:27:54.950Z,19.38
2023-03-13T12:28:55.760Z,19.12
2023-03-13T12:29:56.587Z,19.12
2023-03-13T12:30:57.634Z,19.44
2023-03-13T12:31:57.959Z,19.56
2023-03-13T12:32:58.935Z,19.69
2023-03-13T12:33:59.731Z,19.31
2023-03-13T12:35:00.584Z,18.94
2023-03-13T12:36:01.601Z,18.56
2023-03-13T12:37:01.967Z,18.25
2023-03-13T12:38:02.824Z,18.12
2023-03-13T12:39:03.675Z,18.38
2023-03-13T12:40:04.528Z,18.44
2023-03-13T12:41:05.401Z,18.94
2023-03-13T12:42:06.252Z,19.44
2023-03-13T12:43:07.124Z,19.69
2023-03-13T12:44:09.529Z,19.94
2023-03-13T12:45:08.451Z,20.25
2023-03-13T12:46:09.439Z,20.25
2023-03-13T12:47:10.287Z,19.81
2023-03-13T12:48:11.157Z,19.88
2023-03-13T12:49:11.998Z,19.81
2023-03-13T12:50:12.865Z,19.38
2023-03-13T12:51:14.102Z,18.94
2023-03-13T12:52:14.545Z,18.62
2023-03-13T12:53:15.395Z,18.38
2023-03-13T12:54:16.318Z,18.19
2023-03-13T12:55:17.158Z,18.06
2023-03-13T12:56:18.100Z,17.94
2023-03-13T12:57:19.043Z,17.88
2023-03-13T12:58:19.871Z,17.81
2023-03-13T12:59:20.704Z,18.00
2023-03-13T13:00:21.556Z,18.56
2023-03-13T13:01:22.445Z,19.06
2023-03-13T13:02:23.277Z,18.94
2023-03-13T13:03:24.133Z,18.69
2023-03-13T13:04:25.045Z,18.56